Port Saint Joe, Florida
Current Conditions -  °F | °C
As of 2:53 PM on Friday 31 Oct 2014 (Local Time) from KAAF Reporting Station
Clear Clear  
Wind Chill: 77°   Ceiling: Unl
Heat Index: 78°   Visibility: 10mi
Dew Point: 43°   Wind: 13mph
Humidity: 30%   Direction: 320°NW
Pressure: 29.88"   Gusts: 20mph
Location:  29.81°N, 85.3°W
Report Text: KAAF 311953Z AUTO 32011G17KT 10SM CLR 25/06 A2988 RMK AO2 SLP117 T02500061 TSNO $
Loading
Personal Weather Stations






























Interactive Weather Map
Tropical Storm Tracking
New forecast layout! Learn more

10-Day Weather Forecast

Advertisements
Track Severe Weather on mobile